Weather at Aberdeen Hospital Heliport

Public forecast

Using degrees Celsius for public forecast. Weather courtesy of forecast.io.

Closest aviation weather report (METAR) to Aberdeen Hospital Heliport

Closest report is Charlottetown Airport, 47.5 nm (87.9 km) NNW.

2024/07/20 14:00 (retrieved 47 minutes ago)

CYYG 201400Z 22006KT 200V280 15SM FEW016 25/16 A3000 RMK CF1 CF TR SLP160 DENSITY ALT 1300FT

Closest aviation forecast (TAF) to Aberdeen Hospital Heliport

Closest forecast is Charlottetown Airport, 47.5 nm (87.9 km) NNW.

2024/07/20 12:42 (retrieved 2 hours ago)

TAF CYYG 201140Z 2012/2024 24008KT P6SM FEW080 BECMG 2012/2014 22012KT BECMG 2016/2018 22012G22KT RMK NXT FCST BY 201800Z